sensor_id;sensor_type;location;lat;lon;timestamp;P1;durP1;ratioP1;P2;durP2;ratioP2
21550;SDS011;10936;49.836;7.078;2023-02-10T06:02:04;6.27;;;4.60;;
21550;SDS011;10936;49.836;7.078;2023-02-10T06:04:30;5.67;;;4.70;;
21550;SDS011;10936;49.836;7.078;2023-02-10T06:06:56;5.17;;;4.33;;
21550;SDS011;10936;49.836;7.078;2023-02-10T06:09:21;6.93;;;5.10;;
21550;SDS011;10936;49.836;7.078;2023-02-10T06:11:49;5.27;;;4.60;;
21550;SDS011;10936;49.836;7.078;2023-02-10T06:14:16;6.20;;;4.93;;
21550;SDS011;10936;49.836;7.078;2023-02-10T06:16:42;6.73;;;4.50;;
21550;SDS011;10936;49.836;7.078;2023-02-10T06:19:07;7.10;;;4.87;;
21550;SDS011;10936;49.836;7.078;2023-02-10T06:21:33;6.40;;;5.20;;
21550;SDS011;10936;49.836;7.078;2023-02-10T06:23:58;5.97;;;4.60;;
21550;SDS011;10936;49.836;7.078;2023-02-10T06:26:24;5.97;;;4.63;;
21550;SDS011;10936;49.836;7.078;2023-02-10T06:28:51;6.23;;;4.93;;
21550;SDS011;10936;49.836;7.078;2023-02-10T06:31:17;6.50;;;4.63;;
21550;SDS011;10936;49.836;7.078;2023-02-10T06:33:42;6.30;;;4.57;;
21550;SDS011;10936;49.836;7.078;2023-02-10T06:36:08;5.10;;;4.40;;
21550;SDS011;10936;49.836;7.078;2023-02-10T06:38:35;7.40;;;4.63;;
21550;SDS011;10936;49.836;7.078;2023-02-10T06:41:01;5.53;;;4.57;;
21550;SDS011;10936;49.836;7.078;2023-02-10T06:43:27;6.30;;;4.90;;
21550;SDS011;10936;49.836;7.078;2023-02-10T06:45:53;5.53;;;4.63;;
21550;SDS011;10936;49.836;7.078;2023-02-10T06:48:19;6.43;;;5.27;;
21550;SDS011;10936;49.836;7.078;2023-02-10T06:50:44;6.10;;;4.87;;
21550;SDS011;10936;49.836;7.078;2023-02-10T06:53:10;9.60;;;5.03;;
21550;SDS011;10936;49.836;7.078;2023-02-10T06:55:35;6.43;;;4.80;;
21550;SDS011;10936;49.836;7.078;2023-02-10T06:58:01;5.83;;;4.77;;
21550;SDS011;10936;49.836;7.078;2023-02-10T07:00:28;5.53;;;4.43;;
21550;SDS011;10936;49.836;7.078;2023-02-10T07:02:54;6.87;;;4.93;;
21550;SDS011;10936;49.836;7.078;2023-02-10T07:05:19;6.20;;;4.30;;
21550;SDS011;10936;49.836;7.078;2023-02-10T07:07:45;6.27;;;4.87;;
21550;SDS011;10936;49.836;7.078;2023-02-10T07:10:11;6.50;;;5.13;;
21550;SDS011;10936;49.836;7.078;2023-02-10T07:12:37;6.73;;;4.60;;
21550;SDS011;10936;49.836;7.078;2023-02-10T07:15:03;7.73;;;4.70;;
21550;SDS011;10936;49.836;7.078;2023-02-10T07:17:29;24.80;;;14.90;;
21550;SDS011;10936;49.836;7.078;2023-02-10T07:19:55;36.97;;;24.77;;
21550;SDS011;10936;49.836;7.078;2023-02-10T07:22:20;45.63;;;28.00;;
21550;SDS011;10936;49.836;7.078;2023-02-10T07:24:46;44.37;;;30.43;;
21550;SDS011;10936;49.836;7.078;2023-02-10T07:27:12;41.77;;;27.23;;
21550;SDS011;10936;49.836;7.078;2023-02-10T07:29:37;49.33;;;29.43;;
21550;SDS011;10936;49.836;7.078;2023-02-10T07:32:03;40.03;;;25.87;;
21550;SDS011;10936;49.836;7.078;2023-02-10T07:34:28;34.90;;;23.13;;
21550;SDS011;10936;49.836;7.078;2023-02-10T07:36:56;34.87;;;21.67;;
21550;SDS011;10936;49.836;7.078;2023-02-10T07:39:25;32.80;;;21.60;;
21550;SDS011;10936;49.836;7.078;2023-02-10T07:41:51;31.43;;;19.97;;
21550;SDS011;10936;49.836;7.078;2023-02-10T07:44:17;26.70;;;17.87;;
21550;SDS011;10936;49.836;7.078;2023-02-10T07:46:44;29.37;;;16.87;;
21550;SDS011;10936;49.836;7.078;2023-02-10T07:49:09;25.83;;;17.03;;
21550;SDS011;10936;49.836;7.078;2023-02-10T07:51:35;24.43;;;15.03;;
21550;SDS011;10936;49.836;7.078;2023-02-10T07:54:01;21.20;;;13.57;;
21550;SDS011;10936;49.836;7.078;2023-02-10T07:56:27;22.37;;;14.10;;
21550;SDS011;10936;49.836;7.078;2023-02-10T07:58:52;21.60;;;13.27;;
21550;SDS011;10936;49.836;7.078;2023-02-10T08:01:18;22.00;;;13.60;;
21550;SDS011;10936;49.836;7.078;2023-02-10T08:03:43;19.33;;;12.40;;
21550;SDS011;10936;49.836;7.078;2023-02-10T08:06:09;17.47;;;11.20;;
21550;SDS011;10936;49.836;7.078;2023-02-10T08:08:35;17.73;;;11.70;;
21550;SDS011;10936;49.836;7.078;2023-02-10T08:11:03;17.00;;;11.40;;
21550;SDS011;10936;49.836;7.078;2023-02-10T08:13:32;18.67;;;11.43;;
21550;SDS011;10936;49.836;7.078;2023-02-10T08:15:57;17.63;;;10.57;;
21550;SDS011;10936;49.836;7.078;2023-02-10T08:18:23;14.60;;;9.87;;
21550;SDS011;10936;49.836;7.078;2023-02-10T08:20:49;13.17;;;9.57;;
21550;SDS011;10936;49.836;7.078;2023-02-10T08:23:16;15.33;;;9.73;;
21550;SDS011;10936;49.836;7.078;2023-02-10T08:25:43;19.80;;;10.60;;
21550;SDS011;10936;49.836;7.078;2023-02-10T08:28:09;13.90;;;9.37;;
21550;SDS011;10936;49.836;7.078;2023-02-10T08:30:35;13.20;;;9.33;;
21550;SDS011;10936;49.836;7.078;2023-02-10T08:33:00;14.30;;;9.43;;
21550;SDS011;10936;49.836;7.078;2023-02-10T08:35:26;12.50;;;8.87;;
21550;SDS011;10936;49.836;7.078;2023-02-10T08:37:52;13.57;;;9.57;;
21550;SDS011;10936;49.836;7.078;2023-02-10T08:40:17;14.40;;;9.37;;
21550;SDS011;10936;49.836;7.078;2023-02-10T08:42:43;13.13;;;8.70;;
21550;SDS011;10936;49.836;7.078;2023-02-10T08:45:08;13.77;;;8.43;;
21550;SDS011;10936;49.836;7.078;2023-02-10T08:47:34;13.93;;;8.70;;
21550;SDS011;10936;49.836;7.078;2023-02-10T08:50:00;13.90;;;9.30;;
21550;SDS011;10936;49.836;7.078;2023-02-10T08:52:26;13.53;;;8.53;;
21550;SDS011;10936;49.836;7.078;2023-02-10T08:54:52;13.13;;;8.07;;
21550;SDS011;10936;49.836;7.078;2023-02-10T08:57:17;13.23;;;9.03;;
21550;SDS011;10936;49.836;7.078;2023-02-10T08:59:43;14.07;;;8.70;;
21550;SDS011;10936;49.836;7.078;2023-02-10T09:02:12;13.43;;;7.97;;
21550;SDS011;10936;49.836;7.078;2023-02-10T09:04:38;11.27;;;7.63;;
21550;SDS011;10936;49.836;7.078;2023-02-10T09:07:05;11.47;;;8.13;;
21550;SDS011;10936;49.836;7.078;2023-02-10T09:09:30;13.90;;;8.50;;
21550;SDS011;10936;49.836;7.078;2023-02-10T09:11:56;12.53;;;7.53;;
21550;SDS011;10936;49.836;7.078;2023-02-10T09:14:22;10.50;;;7.97;;
21550;SDS011;10936;49.836;7.078;2023-02-10T09:16:47;12.20;;;7.67;;
21550;SDS011;10936;49.836;7.078;2023-02-10T09:19:15;10.87;;;7.47;;
21550;SDS011;10936;49.836;7.078;2023-02-10T09:21:41;11.57;;;7.80;;
21550;SDS011;10936;49.836;7.078;2023-02-10T09:24:06;11.27;;;7.50;;
21550;SDS011;10936;49.836;7.078;2023-02-10T09:26:32;11.70;;;7.87;;
21550;SDS011;10936;49.836;7.078;2023-02-10T09:28:58;10.03;;;7.90;;
21550;SDS011;10936;49.836;7.078;2023-02-10T09:31:23;9.93;;;7.53;;
21550;SDS011;10936;49.836;7.078;2023-02-10T09:33:49;11.17;;;7.67;;
21550;SDS011;10936;49.836;7.078;2023-02-10T09:36:15;10.70;;;7.30;;
21550;SDS011;10936;49.836;7.078;2023-02-10T09:38:43;9.63;;;7.40;;
21550;SDS011;10936;49.836;7.078;2023-02-10T09:46:26;11.50;;;7.27;;
21550;SDS011;10936;49.836;7.078;2023-02-10T09:54:35;11.53;;;7.17;;
21550;SDS011;10936;49.836;7.078;2023-02-10T09:57:02;10.37;;;6.90;;
21550;SDS011;10936;49.836;7.078;2023-02-10T09:59:30;10.00;;;7.10;;
21550;SDS011;10936;49.836;7.078;2023-02-10T10:02:00;9.50;;;6.50;;
21550;SDS011;10936;49.836;7.078;2023-02-10T10:04:34;11.00;;;7.27;;
21550;SDS011;10936;49.836;7.078;2023-02-10T10:07:07;9.90;;;7.00;;
21550;SDS011;10936;49.836;7.078;2023-02-10T10:10:02;9.60;;;6.70;;
21550;SDS011;10936;49.836;7.078;2023-02-10T10:12:39;12.17;;;7.13;;
21550;SDS011;10936;49.836;7.078;2023-02-10T10:15:06;9.93;;;6.93;;
21550;SDS011;10936;49.836;7.078;2023-02-10T10:31:13;8.97;;;6.40;;
21550;SDS011;10936;49.836;7.078;2023-02-10T10:33:42;8.60;;;6.43;;
21550;SDS011;10936;49.836;7.078;2023-02-10T10:36:15;9.23;;;6.40;;
21550;SDS011;10936;49.836;7.078;2023-02-10T10:38:44;9.33;;;6.40;;
21550;SDS011;10936;49.836;7.078;2023-02-10T10:41:15;9.10;;;6.60;;
21550;SDS011;10936;49.836;7.078;2023-02-10T10:43:48;9.27;;;6.60;;
21550;SDS011;10936;49.836;7.078;2023-02-10T10:46:23;12.00;;;6.60;;
21550;SDS011;10936;49.836;7.078;2023-02-10T10:48:56;9.03;;;6.13;;
21550;SDS011;10936;49.836;7.078;2023-02-10T10:51:22;8.93;;;6.27;;
21550;SDS011;10936;49.836;7.078;2023-02-10T10:59:02;9.60;;;5.97;;
21550;SDS011;10936;49.836;7.078;2023-02-10T11:01:37;10.20;;;6.50;;
21550;SDS011;10936;49.836;7.078;2023-02-10T11:04:27;8.13;;;5.90;;
21550;SDS011;10936;49.836;7.078;2023-02-10T11:06:57;9.53;;;6.27;;
21550;SDS011;10936;49.836;7.078;2023-02-10T11:09:31;9.80;;;6.23;;
21550;SDS011;10936;49.836;7.078;2023-02-10T11:12:03;8.43;;;6.17;;
21550;SDS011;10936;49.836;7.078;2023-02-10T11:14:39;7.47;;;5.63;;
21550;SDS011;10936;49.836;7.078;2023-02-10T11:17:17;9.60;;;6.13;;
21550;SDS011;10936;49.836;7.078;2023-02-10T11:19:51;10.43;;;6.43;;
21550;SDS011;10936;49.836;7.078;2023-02-10T11:22:25;9.73;;;6.53;;
21550;SDS011;10936;49.836;7.078;2023-02-10T11:24:53;8.40;;;5.97;;
21550;SDS011;10936;49.836;7.078;2023-02-10T11:27:22;10.20;;;5.87;;
21550;SDS011;10936;49.836;7.078;2023-02-10T11:29:51;7.83;;;5.87;;
21550;SDS011;10936;49.836;7.078;2023-02-10T11:32:21;11.37;;;5.50;;
21550;SDS011;10936;49.836;7.078;2023-02-10T11:34:51;8.23;;;5.70;;
21550;SDS011;10936;49.836;7.078;2023-02-10T11:37:40;11.07;;;5.90;;
21550;SDS011;10936;49.836;7.078;2023-02-10T11:40:15;7.97;;;5.73;;
21550;SDS011;10936;49.836;7.078;2023-02-10T11:42:53;7.47;;;5.50;;
21550;SDS011;10936;49.836;7.078;2023-02-10T11:50:41;6.53;;;4.90;;
21550;SDS011;10936;49.836;7.078;2023-02-10T11:53:13;7.00;;;5.33;;
21550;SDS011;10936;49.836;7.078;2023-02-10T11:55:59;7.10;;;5.20;;
21550;SDS011;10936;49.836;7.078;2023-02-10T12:06:47;6.33;;;4.80;;
21550;SDS011;10936;49.836;7.078;2023-02-10T12:09:37;7.03;;;5.13;;
21550;SDS011;10936;49.836;7.078;2023-02-10T12:12:22;6.60;;;4.80;;
21550;SDS011;10936;49.836;7.078;2023-02-10T12:28:39;5.97;;;4.60;;
21550;SDS011;10936;49.836;7.078;2023-02-10T12:37:20;6.37;;;4.90;;
21550;SDS011;10936;49.836;7.078;2023-02-10T12:48:18;5.57;;;4.33;;
21550;SDS011;10936;49.836;7.078;2023-02-10T12:53:29;5.23;;;4.10;;
21550;SDS011;10936;49.836;7.078;2023-02-10T12:58:40;5.80;;;3.97;;
21550;SDS011;10936;49.836;7.078;2023-02-10T13:01:29;8.93;;;4.47;;
21550;SDS011;10936;49.836;7.078;2023-02-10T13:03:58;8.03;;;4.67;;
21550;SDS011;10936;49.836;7.078;2023-02-10T13:06:34;5.87;;;4.47;;
21550;SDS011;10936;49.836;7.078;2023-02-10T13:09:09;5.43;;;4.10;;
21550;SDS011;10936;49.836;7.078;2023-02-10T13:11:48;7.57;;;4.80;;
21550;SDS011;10936;49.836;7.078;2023-02-10T13:14:27;7.53;;;4.30;;
21550;SDS011;10936;49.836;7.078;2023-02-10T13:16:55;5.83;;;4.03;;
21550;SDS011;10936;49.836;7.078;2023-02-10T13:22:09;5.57;;;4.00;;
21550;SDS011;10936;49.836;7.078;2023-02-10T13:24:56;4.97;;;4.10;;
21550;SDS011;10936;49.836;7.078;2023-02-10T13:30:36;6.23;;;4.30;;
21550;SDS011;10936;49.836;7.078;2023-02-10T13:33:24;5.30;;;3.97;;
21550;SDS011;10936;49.836;7.078;2023-02-10T13:36:00;5.13;;;4.20;;
21550;SDS011;10936;49.836;7.078;2023-02-10T13:38:27;7.90;;;4.23;;
21550;SDS011;10936;49.836;7.078;2023-02-10T13:40:58;5.33;;;4.10;;
21550;SDS011;10936;49.836;7.078;2023-02-10T13:43:42;7.53;;;4.17;;
21550;SDS011;10936;49.836;7.078;2023-02-10T13:46:18;6.27;;;4.10;;
21550;SDS011;10936;49.836;7.078;2023-02-10T13:48:54;8.77;;;4.70;;
21550;SDS011;10936;49.836;7.078;2023-02-10T13:51:30;6.37;;;4.27;;
21550;SDS011;10936;49.836;7.078;2023-02-10T13:53:59;7.30;;;3.90;;
21550;SDS011;10936;49.836;7.078;2023-02-10T13:56:29;5.37;;;4.10;;
21550;SDS011;10936;49.836;7.078;2023-02-10T13:58:58;9.50;;;4.03;;
21550;SDS011;10936;49.836;7.078;2023-02-10T14:02:15;5.07;;;4.23;;
21550;SDS011;10936;49.836;7.078;2023-02-10T14:04:42;5.60;;;4.07;;
21550;SDS011;10936;49.836;7.078;2023-02-10T14:09:59;8.23;;;3.97;;
21550;SDS011;10936;49.836;7.078;2023-02-10T14:12:27;6.83;;;3.63;;
21550;SDS011;10936;49.836;7.078;2023-02-10T14:14:53;6.23;;;3.70;;
21550;SDS011;10936;49.836;7.078;2023-02-10T14:17:28;6.13;;;3.93;;
21550;SDS011;10936;49.836;7.078;2023-02-10T14:19:55;5.73;;;3.47;;
21550;SDS011;10936;49.836;7.078;2023-02-10T14:24:54;5.83;;;4.07;;
21550;SDS011;10936;49.836;7.078;2023-02-10T14:27:24;7.23;;;3.90;;
21550;SDS011;10936;49.836;7.078;2023-02-10T14:29:59;5.63;;;4.00;;
21550;SDS011;10936;49.836;7.078;2023-02-10T14:32:41;5.50;;;3.63;;
21550;SDS011;10936;49.836;7.078;2023-02-10T14:35:16;10.50;;;4.13;;
21550;SDS011;10936;49.836;7.078;2023-02-10T14:37:53;5.00;;;3.60;;
21550;SDS011;10936;49.836;7.078;2023-02-10T14:40:22;7.30;;;3.80;;
21550;SDS011;10936;49.836;7.078;2023-02-10T14:42:49;5.10;;;3.60;;
21550;SDS011;10936;49.836;7.078;2023-02-10T14:45:19;5.20;;;3.60;;
21550;SDS011;10936;49.836;7.078;2023-02-10T14:47:51;6.10;;;3.93;;
21550;SDS011;10936;49.836;7.078;2023-02-10T14:50:26;5.90;;;3.40;;
21550;SDS011;10936;49.836;7.078;2023-02-10T14:52:54;4.80;;;3.70;;
21550;SDS011;10936;49.836;7.078;2023-02-10T14:57:56;7.67;;;3.43;;
21550;SDS011;10936;49.836;7.078;2023-02-10T15:00:35;6.37;;;3.10;;
21550;SDS011;10936;49.836;7.078;2023-02-10T15:03:02;7.43;;;4.17;;
21550;SDS011;10936;49.836;7.078;2023-02-10T15:05:31;4.30;;;3.20;;
21550;SDS011;10936;49.836;7.078;2023-02-10T15:08:12;5.77;;;3.70;;
21550;SDS011;10936;49.836;7.078;2023-02-10T15:10:44;6.83;;;3.67;;
21550;SDS011;10936;49.836;7.078;2023-02-10T15:13:14;7.80;;;3.97;;
21550;SDS011;10936;49.836;7.078;2023-02-10T15:15:47;7.27;;;3.57;;
21550;SDS011;10936;49.836;7.078;2023-02-10T15:18:23;6.30;;;3.67;;
21550;SDS011;10936;49.836;7.078;2023-02-10T15:20:52;7.67;;;4.10;;
21550;SDS011;10936;49.836;7.078;2023-02-10T15:23:20;7.10;;;4.00;;
21550;SDS011;10936;49.836;7.078;2023-02-10T15:25:46;6.27;;;4.23;;
21550;SDS011;10936;49.836;7.078;2023-02-10T15:30:57;10.50;;;4.90;;
21550;SDS011;10936;49.836;7.078;2023-02-10T15:33:39;10.60;;;4.20;;
21550;SDS011;10936;49.836;7.078;2023-02-10T15:39:02;9.73;;;4.40;;
21550;SDS011;10936;49.836;7.078;2023-02-10T15:42:04;6.80;;;3.57;;
21550;SDS011;10936;49.836;7.078;2023-02-10T15:45:11;11.83;;;4.37;;
21550;SDS011;10936;49.836;7.078;2023-02-10T15:50:13;9.43;;;4.20;;
21550;SDS011;10936;49.836;7.078;2023-02-10T15:52:40;8.50;;;4.53;;
21550;SDS011;10936;49.836;7.078;2023-02-10T15:55:30;7.87;;;3.97;;
21550;SDS011;10936;49.836;7.078;2023-02-10T15:57:56;8.47;;;3.40;;
21550;SDS011;10936;49.836;7.078;2023-02-10T16:02:49;7.80;;;4.00;;
21550;SDS011;10936;49.836;7.078;2023-02-10T16:05:15;8.93;;;3.80;;
21550;SDS011;10936;49.836;7.078;2023-02-10T16:07:41;8.57;;;3.70;;
21550;SDS011;10936;49.836;7.078;2023-02-10T16:10:10;6.83;;;3.70;;
21550;SDS011;10936;49.836;7.078;2023-02-10T16:12:46;7.43;;;3.83;;
21550;SDS011;10936;49.836;7.078;2023-02-10T16:15:13;8.10;;;3.87;;
21550;SDS011;10936;49.836;7.078;2023-02-10T16:17:41;10.30;;;3.80;;
21550;SDS011;10936;49.836;7.078;2023-02-10T16:20:13;9.00;;;3.77;;
21550;SDS011;10936;49.836;7.078;2023-02-10T16:22:47;9.03;;;4.10;;
21550;SDS011;10936;49.836;7.078;2023-02-10T16:25:14;7.07;;;3.40;;
21550;SDS011;10936;49.836;7.078;2023-02-10T16:27:41;5.93;;;3.70;;
21550;SDS011;10936;49.836;7.078;2023-02-10T16:30:07;9.47;;;3.80;;
21550;SDS011;10936;49.836;7.078;2023-02-10T16:32:39;5.77;;;3.70;;
21550;SDS011;10936;49.836;7.078;2023-02-10T16:35:05;6.60;;;3.40;;
21550;SDS011;10936;49.836;7.078;2023-02-10T16:37:30;4.90;;;3.60;;
21550;SDS011;10936;49.836;7.078;2023-02-10T16:39:56;5.23;;;3.70;;
21550;SDS011;10936;49.836;7.078;2023-02-10T16:42:22;6.70;;;4.03;;
21550;SDS011;10936;49.836;7.078;2023-02-10T16:44:47;5.73;;;3.90;;
21550;SDS011;10936;49.836;7.078;2023-02-10T16:47:15;6.67;;;3.77;;
21550;SDS011;10936;49.836;7.078;2023-02-10T16:49:43;8.37;;;3.47;;
21550;SDS011;10936;49.836;7.078;2023-02-10T16:52:08;6.37;;;3.57;;
21550;SDS011;10936;49.836;7.078;2023-02-10T16:54:34;8.17;;;4.00;;
21550;SDS011;10936;49.836;7.078;2023-02-10T16:56:59;6.33;;;3.63;;
21550;SDS011;10936;49.836;7.078;2023-02-10T16:59:25;5.80;;;3.50;;
21550;SDS011;10936;49.836;7.078;2023-02-10T17:01:52;6.17;;;3.80;;
21550;SDS011;10936;49.836;7.078;2023-02-10T17:04:20;5.80;;;4.00;;
21550;SDS011;10936;49.836;7.078;2023-02-10T17:06:47;6.23;;;3.53;;
21550;SDS011;10936;49.836;7.078;2023-02-10T17:09:21;4.13;;;3.37;;
21550;SDS011;10936;49.836;7.078;2023-02-10T17:11:49;11.60;;;3.77;;
21550;SDS011;10936;49.836;7.078;2023-02-10T17:14:15;5.80;;;3.60;;
21550;SDS011;10936;49.836;7.078;2023-02-10T17:16:42;5.10;;;3.17;;
21550;SDS011;10936;49.836;7.078;2023-02-10T17:19:14;6.27;;;3.43;;
21550;SDS011;10936;49.836;7.078;2023-02-10T17:21:41;9.37;;;3.80;;
21550;SDS011;10936;49.836;7.078;2023-02-10T17:24:07;5.33;;;3.53;;
21550;SDS011;10936;49.836;7.078;2023-02-10T17:26:33;6.67;;;3.87;;
21550;SDS011;10936;49.836;7.078;2023-02-10T17:28:58;5.27;;;3.50;;
21550;SDS011;10936;49.836;7.078;2023-02-10T17:31:24;4.13;;;2.90;;
21550;SDS011;10936;49.836;7.078;2023-02-10T17:33:50;4.80;;;3.00;;
21550;SDS011;10936;49.836;7.078;2023-02-10T17:36:18;8.73;;;3.87;;
21550;SDS011;10936;49.836;7.078;2023-02-10T17:38:45;7.73;;;3.63;;
21550;SDS011;10936;49.836;7.078;2023-02-10T17:41:17;7.63;;;3.70;;
21550;SDS011;10936;49.836;7.078;2023-02-10T17:43:50;6.03;;;3.77;;
21550;SDS011;10936;49.836;7.078;2023-02-10T17:46:17;5.27;;;3.63;;
21550;SDS011;10936;49.836;7.078;2023-02-10T17:48:43;6.13;;;3.20;;
21550;SDS011;10936;49.836;7.078;2023-02-10T17:51:10;4.57;;;3.10;;
21550;SDS011;10936;49.836;7.078;2023-02-10T17:53:44;6.73;;;3.50;;
21550;SDS011;10936;49.836;7.078;2023-02-10T17:56:15;5.47;;;3.63;;
21550;SDS011;10936;49.836;7.078;2023-02-10T17:58:41;5.27;;;3.70;;
21550;SDS011;10936;49.836;7.078;2023-02-10T18:01:15;5.90;;;3.30;;
21550;SDS011;10936;49.836;7.078;2023-02-10T18:03:51;5.77;;;3.13;;
21550;SDS011;10936;49.836;7.078;2023-02-10T18:06:17;4.90;;;3.17;;
21550;SDS011;10936;49.836;7.078;2023-02-10T18:08:44;6.13;;;3.30;;
21550;SDS011;10936;49.836;7.078;2023-02-10T18:11:10;4.87;;;3.60;;
21550;SDS011;10936;49.836;7.078;2023-02-10T18:13:36;4.27;;;3.20;;
21550;SDS011;10936;49.836;7.078;2023-02-10T18:16:02;4.70;;;3.43;;
21550;SDS011;10936;49.836;7.078;2023-02-10T18:18:28;4.47;;;3.30;;
21550;SDS011;10936;49.836;7.078;2023-02-10T18:20:53;5.73;;;3.60;;
21550;SDS011;10936;49.836;7.078;2023-02-10T18:23:19;4.87;;;3.10;;
21550;SDS011;10936;49.836;7.078;2023-02-10T18:25:46;4.23;;;3.10;;
21550;SDS011;10936;49.836;7.078;2023-02-10T18:28:12;5.37;;;3.50;;
21550;SDS011;10936;49.836;7.078;2023-02-10T18:30:38;4.43;;;3.30;;
21550;SDS011;10936;49.836;7.078;2023-02-10T18:33:04;4.33;;;3.07;;
21550;SDS011;10936;49.836;7.078;2023-02-10T18:35:30;4.10;;;2.93;;
21550;SDS011;10936;49.836;7.078;2023-02-10T18:38:00;4.73;;;3.23;;
21550;SDS011;10936;49.836;7.078;2023-02-10T18:40:27;4.30;;;3.40;;
21550;SDS011;10936;49.836;7.078;2023-02-10T18:42:53;4.90;;;3.40;;
21550;SDS011;10936;49.836;7.078;2023-02-10T18:45:19;7.93;;;3.23;;
21550;SDS011;10936;49.836;7.078;2023-02-10T18:47:45;5.30;;;2.90;;
21550;SDS011;10936;49.836;7.078;2023-02-10T18:50:10;4.63;;;3.10;;
21550;SDS011;10936;49.836;7.078;2023-02-10T18:52:36;4.83;;;3.60;;
21550;SDS011;10936;49.836;7.078;2023-02-10T18:55:02;5.23;;;3.60;;
21550;SDS011;10936;49.836;7.078;2023-02-10T18:57:29;6.03;;;3.33;;
21550;SDS011;10936;49.836;7.078;2023-02-10T18:59:54;4.27;;;3.17;;
21550;SDS011;10936;49.836;7.078;2023-02-10T19:02:20;4.20;;;3.00;;
21550;SDS011;10936;49.836;7.078;2023-02-10T19:04:46;3.73;;;2.90;;
21550;SDS011;10936;49.836;7.078;2023-02-10T19:07:11;5.03;;;2.90;;
21550;SDS011;10936;49.836;7.078;2023-02-10T19:09:37;6.37;;;3.20;;
21550;SDS011;10936;49.836;7.078;2023-02-10T19:12:03;4.83;;;3.17;;
21550;SDS011;10936;49.836;7.078;2023-02-10T19:14:29;7.10;;;3.03;;
21550;SDS011;10936;49.836;7.078;2023-02-10T19:16:59;5.37;;;3.00;;
21550;SDS011;10936;49.836;7.078;2023-02-10T19:19:25;5.13;;;3.07;;
21550;SDS011;10936;49.836;7.078;2023-02-10T19:21:51;3.30;;;2.67;;
21550;SDS011;10936;49.836;7.078;2023-02-10T19:24:17;5.53;;;2.87;;
21550;SDS011;10936;49.836;7.078;2023-02-10T19:26:43;5.73;;;3.17;;
21550;SDS011;10936;49.836;7.078;2023-02-10T19:29:09;5.03;;;3.20;;
21550;SDS011;10936;49.836;7.078;2023-02-10T19:31:35;5.03;;;3.10;;
21550;SDS011;10936;49.836;7.078;2023-02-10T19:34:00;4.27;;;3.10;;
21550;SDS011;10936;49.836;7.078;2023-02-10T19:36:26;4.93;;;3.17;;
21550;SDS011;10936;49.836;7.078;2023-02-10T19:38:51;3.63;;;3.00;;
21550;SDS011;10936;49.836;7.078;2023-02-10T19:41:19;4.73;;;3.20;;
21550;SDS011;10936;49.836;7.078;2023-02-10T19:43:46;3.77;;;3.07;;
21550;SDS011;10936;49.836;7.078;2023-02-10T19:46:12;3.17;;;2.80;;
21550;SDS011;10936;49.836;7.078;2023-02-10T19:48:39;4.60;;;2.93;;
21550;SDS011;10936;49.836;7.078;2023-02-10T19:51:07;4.97;;;3.10;;
21550;SDS011;10936;49.836;7.078;2023-02-10T19:53:41;4.23;;;3.03;;
21550;SDS011;10936;49.836;7.078;2023-02-10T19:56:07;3.27;;;2.90;;
21550;SDS011;10936;49.836;7.078;2023-02-10T19:58:34;3.70;;;3.17;;
21550;SDS011;10936;49.836;7.078;2023-02-10T20:01:02;3.67;;;3.03;;
21550;SDS011;10936;49.836;7.078;2023-02-10T20:03:33;5.00;;;3.37;;
21550;SDS011;10936;49.836;7.078;2023-02-10T20:06:01;4.20;;;3.27;;
21550;SDS011;10936;49.836;7.078;2023-02-10T20:08:28;3.70;;;2.90;;
21550;SDS011;10936;49.836;7.078;2023-02-10T20:10:54;3.53;;;2.80;;
21550;SDS011;10936;49.836;7.078;2023-02-10T20:13:20;3.83;;;2.80;;
21550;SDS011;10936;49.836;7.078;2023-02-10T20:15:46;3.77;;;2.87;;
21550;SDS011;10936;49.836;7.078;2023-02-10T20:18:13;3.73;;;3.10;;
21550;SDS011;10936;49.836;7.078;2023-02-10T20:20:42;4.27;;;3.20;;
21550;SDS011;10936;49.836;7.078;2023-02-10T20:23:18;7.37;;;2.90;;
21550;SDS011;10936;49.836;7.078;2023-02-10T20:25:44;3.67;;;2.80;;
21550;SDS011;10936;49.836;7.078;2023-02-10T20:28:11;5.30;;;2.93;;
21550;SDS011;10936;49.836;7.078;2023-02-10T20:30:37;4.60;;;3.20;;
21550;SDS011;10936;49.836;7.078;2023-02-10T20:33:03;3.47;;;2.60;;
21550;SDS011;10936;49.836;7.078;2023-02-10T20:35:29;4.20;;;2.40;;
21550;SDS011;10936;49.836;7.078;2023-02-10T20:37:58;3.80;;;3.20;;
21550;SDS011;10936;49.836;7.078;2023-02-10T20:40:24;4.47;;;3.37;;
21550;SDS011;10936;49.836;7.078;2023-02-10T20:42:49;4.57;;;3.30;;
21550;SDS011;10936;49.836;7.078;2023-02-10T20:45:16;4.03;;;2.70;;
21550;SDS011;10936;49.836;7.078;2023-02-10T20:47:42;5.43;;;3.00;;
21550;SDS011;10936;49.836;7.078;2023-02-10T20:50:08;3.90;;;2.77;;
21550;SDS011;10936;49.836;7.078;2023-02-10T20:52:34;3.00;;;2.67;;
21550;SDS011;10936;49.836;7.078;2023-02-10T20:55:01;4.07;;;3.00;;
21550;SDS011;10936;49.836;7.078;2023-02-10T20:57:29;4.27;;;3.10;;
21550;SDS011;10936;49.836;7.078;2023-02-10T20:59:54;4.30;;;3.10;;
21550;SDS011;10936;49.836;7.078;2023-02-10T21:02:20;5.03;;;3.33;;
21550;SDS011;10936;49.836;7.078;2023-02-10T21:04:48;4.00;;;3.33;;
21550;SDS011;10936;49.836;7.078;2023-02-10T21:07:14;4.70;;;2.70;;
21550;SDS011;10936;49.836;7.078;2023-02-10T21:09:40;3.13;;;2.57;;
21550;SDS011;10936;49.836;7.078;2023-02-10T21:12:06;4.77;;;2.93;;
21550;SDS011;10936;49.836;7.078;2023-02-10T21:14:31;5.93;;;3.07;;
21550;SDS011;10936;49.836;7.078;2023-02-10T21:16:57;3.37;;;2.57;;
21550;SDS011;10936;49.836;7.078;2023-02-10T21:19:23;3.80;;;2.80;;
21550;SDS011;10936;49.836;7.078;2023-02-10T21:21:49;4.97;;;3.03;;
21550;SDS011;10936;49.836;7.078;2023-02-10T21:24:15;4.80;;;2.93;;
21550;SDS011;10936;49.836;7.078;2023-02-10T21:26:42;5.20;;;3.20;;
21550;SDS011;10936;49.836;7.078;2023-02-10T21:29:09;4.73;;;2.90;;
21550;SDS011;10936;49.836;7.078;2023-02-10T21:31:35;5.20;;;3.10;;
21550;SDS011;10936;49.836;7.078;2023-02-10T21:34:04;4.07;;;3.27;;
21550;SDS011;10936;49.836;7.078;2023-02-10T21:36:32;4.23;;;2.80;;
21550;SDS011;10936;49.836;7.078;2023-02-10T21:38:58;3.70;;;3.10;;
21550;SDS011;10936;49.836;7.078;2023-02-10T21:41:26;3.70;;;2.90;;
21550;SDS011;10936;49.836;7.078;2023-02-10T21:46:35;5.57;;;3.17;;
21550;SDS011;10936;49.836;7.078;2023-02-10T21:49:00;4.07;;;3.03;;
21550;SDS011;10936;49.836;7.078;2023-02-10T21:51:26;3.80;;;3.07;;
21550;SDS011;10936;49.836;7.078;2023-02-10T21:53:52;6.27;;;2.87;;
21550;SDS011;10936;49.836;7.078;2023-02-10T21:56:17;4.77;;;2.90;;
21550;SDS011;10936;49.836;7.078;2023-02-10T21:58:43;3.20;;;2.70;;
21550;SDS011;10936;49.836;7.078;2023-02-10T22:01:10;4.30;;;3.17;;
21550;SDS011;10936;49.836;7.078;2023-02-10T22:03:38;3.50;;;2.70;;
21550;SDS011;10936;49.836;7.078;2023-02-10T22:06:05;4.17;;;2.70;;
21550;SDS011;10936;49.836;7.078;2023-02-10T22:08:31;3.83;;;3.20;;
21550;SDS011;10936;49.836;7.078;2023-02-10T22:10:58;4.47;;;2.83;;
21550;SDS011;10936;49.836;7.078;2023-02-10T22:13:28;3.97;;;3.00;;
21550;SDS011;10936;49.836;7.078;2023-02-10T22:15:54;3.90;;;2.60;;
21550;SDS011;10936;49.836;7.078;2023-02-10T22:18:20;3.97;;;3.00;;
21550;SDS011;10936;49.836;7.078;2023-02-10T22:20:45;3.50;;;3.17;;
21550;SDS011;10936;49.836;7.078;2023-02-10T22:23:11;5.00;;;3.30;;
21550;SDS011;10936;49.836;7.078;2023-02-10T22:25:37;6.03;;;3.27;;
21550;SDS011;10936;49.836;7.078;2023-02-10T22:28:02;4.37;;;3.10;;
21550;SDS011;10936;49.836;7.078;2023-02-10T22:30:28;5.03;;;3.17;;
21550;SDS011;10936;49.836;7.078;2023-02-10T22:32:53;4.60;;;2.80;;
21550;SDS011;10936;49.836;7.078;2023-02-10T22:35:19;3.20;;;2.60;;
21550;SDS011;10936;49.836;7.078;2023-02-10T22:37:45;5.43;;;2.80;;